Latest Weather Observations for Griffith

IDN60801

Issued at 10:03 am EST Friday 29 July 2016 (issued every 30 minutes, with the page automatically refreshed every 10 minutes)

About weather observations | Map of weather stations | Latest weather observations for NSW | Other Formats
Station Details ID: 075041 Name: GRIFFITH AIRPORT AWS Lat: -34.25 Lon: 146.07 Height: 134.0 m
Data from the previous 72 hours. | See also: Recent months at Griffith
Date/Time
EST
Temp
°C
App
Temp
°C
Dew
Point
°C
Rel
Hum
%
Delta-T
°C
Wind Press
QNH
hPa
Press
MSL
hPa
Rain since
9am
mm
Dir  Spd
km/h
Gust
km/h
Spd
kts
Gust
kts
29/10:00am 10.3 6.3 4.7 68 2.5 WNW 15 20 8 11 1026.8 1027.1 0.0
29/09:30am 9.9 6.5 6.1 77 1.8 WNW 13 19 7 10 1026.9 1027.2 0.0
29/09:00am 9.3 6.9 7.1 86 1.0 WNW 9 11 5 6 1026.7 1027.0 -
29/08:30am 8.8 7.1 7.6 92 0.6 NW 6 7 3 4 1026.8 1027.1 -
29/08:00am 8.3 7.7 7.4 94 0.4 CALM 0 0 0 0 1026.6 1026.9 -
29/07:30am 8.3 7.2 7.1 92 0.6 NW 2 6 1 3 1026.6 1026.9 -
29/07:00am 8.3 7.5 6.6 89 0.8 CALM 0 11 0 6 1026.5 1026.7 -
29/06:30am 8.5 6.9 6.5 87 0.9 W 4 7 2 4 1026.4 1026.6 -
29/06:00am 8.5 6.4 6.5 87 0.9 WSW 7 9 4 5 1026.3 1026.5 -
29/05:30am 8.7 6.2 6.5 86 1.0 W 9 11 5 6 1026.2 1026.4 -
29/05:00am 8.7 6.2 6.5 86 1.0 W 9 11 5 6 1026.0 1026.2 -
29/04:30am 9.0 6.0 6.1 82 1.3 W 11 17 6 9 1025.7 1025.9 -
29/04:00am 8.5 6.8 7.4 93 0.5 WSW 6 9 3 5 1025.4 1025.6 -
29/03:30am 8.4 7.5 7.8 96 0.3 W 2 6 1 3 1025.5 1025.7 -
29/03:00am 8.6 7.9 6.9 89 0.8 CALM 0 0 0 0 1025.6 1025.8 0.0
29/02:30am 8.6 8.0 7.2 91 0.7 CALM 0 0 0 0 1025.7 1025.9 -
29/02:00am 8.7 7.7 7.2 90 0.7 N 2 9 1 5 1026.0 1026.2 -
29/01:30am 8.6 6.6 7.1 90 0.7 N 7 9 4 5 1026.1 1026.3 -
29/01:00am 8.5 7.6 7.6 94 0.4 W 2 7 1 4 1026.4 1026.6 -
29/12:30am 8.4 7.9 7.8 96 0.3 CALM 0 0 0 0 1026.4 1026.6 -
29/12:00am 8.6 8.1 7.7 94 0.4 CALM 0 0 0 0 1026.6 1026.9 -
 
Date/Time
EST
Temp
°C
App
Temp
°C
Dew
Point
°C
Rel
Hum
%
Delta-T
°C
Wind Press
QNH
hPa
Press
MSL
hPa
Rain since
9am
mm
Dir  Spd
km/h
Gust
km/h
Spd
kts
Gust
kts
28/11:30pm 8.4 6.8 7.8 96 0.3 NNW 6 9 3 5 1026.6 1026.9 -
28/11:00pm 8.5 8.0 7.7 95 0.4 CALM 0 0 0 0 1026.8 1027.1 -
28/10:30pm 8.4 7.6 8.3 99 0.0 NE 2 9 1 5 1027.0 1027.3 -
28/10:00pm 8.4 8.0 8.3 99 0.0 CALM 0 0 0 0 1027.3 1027.6 -
28/09:30pm 8.4 6.7 8.3 99 0.0 NNW 7 9 4 5 1027.5 1027.8 -
28/09:00pm 8.4 7.6 8.3 99 0.0 NE 2 7 1 4 1027.5 1027.8 0.0
28/08:30pm 8.4 7.6 8.3 99 0.0 N 2 6 1 3 1027.5 1027.8 -
28/08:00pm 8.4 6.7 8.3 99 0.0 N 7 9 4 5 1027.6 1027.9 -
28/07:30pm 8.4 6.9 8.3 99 0.0 WNW 6 6 3 3 1027.7 1028.0 -
28/07:00pm 8.6 6.9 8.5 99 0.0 W 7 9 4 5 1027.7 1028.0 -
28/06:30pm 8.9 6.4 8.0 94 0.4 W 11 15 6 8 1027.5 1027.8 -
28/06:00pm 9.0 6.5 6.6 85 1.1 W 9 11 5 6 1027.1 1027.4 -
28/05:30pm 9.6 7.6 6.9 83 1.3 WNW 7 9 4 5 1027.1 1027.4 -
28/05:00pm 10.0 6.7 6.3 78 1.7 W 13 15 7 8 1027.1 1027.4 -
28/04:30pm 10.2 6.5 6.5 78 1.7 W 15 20 8 11 1027.1 1027.4 -
28/04:00pm 10.3 6.7 6.6 78 1.7 W 15 19 8 10 1027.1 1027.4 -
28/03:30pm 10.3 6.3 6.5 77 1.8 W 17 22 9 12 1027.2 1027.5 -
28/03:00pm 10.5 6.8 6.5 76 1.9 W 15 20 8 11 1027.0 1027.3 -
28/02:30pm 10.6 6.5 6.4 75 2.0 W 17 22 9 12 1026.9 1027.2 -
28/02:00pm 10.6 6.6 6.6 76 1.9 WSW 17 24 9 13 1027.2 1027.5 -
28/01:30pm 10.5 6.5 6.6 77 1.8 WSW 17 22 9 12 1027.5 1027.8 -
28/01:00pm 10.3 6.9 5.9 74 2.0 W 13 19 7 10 1027.9 1028.2 -
28/12:30pm 10.4 6.7 6.4 76 1.9 WSW 15 24 8 13 1028.2 1028.5 -
28/12:00pm 10.0 5.8 5.8 75 1.9 W 17 22 9 12 1028.7 1029.0 -
28/11:30am 9.8 5.6 5.6 75 1.9 WSW 17 22 9 12 1029.0 1029.3 0.0
28/11:00am 9.8 5.6 5.6 75 1.9 WSW 17 24 9 13 1029.2 1029.5 0.0
28/10:30am 9.7 6.4 6.6 81 1.5 WSW 13 17 7 9 1029.3 1029.6 0.0
28/10:00am 9.2 5.9 6.6 84 1.2 WSW 13 17 7 9 1029.2 1029.5 0.0
28/09:30am 8.6 6.7 7.7 94 0.4 WSW 7 15 4 8 1029.0 1029.3 0.0
28/09:00am 7.3 6.7 7.2 99 0.0 CALM 0 0 0 0 1028.8 1029.1 0.2
28/08:30am 6.6 5.8 6.5 99 0.0 CALM 0 0 0 0 1028.5 1028.8 0.2
28/08:00am 5.5 4.5 5.5 100 0.0 CALM 0 0 0 0 1028.1 1028.4 0.2
28/07:30am 5.0 3.9 5.0 100 0.0 CALM 0 0 0 0 1027.8 1028.1 0.2
28/07:00am 4.6 3.4 4.6 100 0.0 CALM 0 0 0 0 1027.5 1027.8 0.2
28/06:30am 4.3 2.3 4.3 100 0.0 N 4 7 2 4 1027.2 1027.5 0.2
28/06:00am 3.7 2.3 3.7 100 0.0 CALM 0 0 0 0 1027.0 1027.3 0.2
28/05:30am 2.1 0.4 2.0 99 0.0 CALM 0 0 0 0 1026.7 1027.0 0.2
28/05:00am 1.6 -0.2 1.5 99 0.0 CALM 0 0 0 0 1026.3 1026.5 0.2
28/04:30am 2.1 0.0 2.0 99 0.0 NNW 2 7 1 4 1026.1 1026.3 0.2
28/04:00am 2.2 0.5 2.1 99 0.0 CALM 0 0 0 0 1026.0 1026.2 0.2
28/03:30am 2.4 0.8 2.3 99 0.0 CALM 0 0 0 0 1025.9 1026.1 0.2
28/03:00am 2.5 0.5 2.4 99 0.0 NW 2 7 1 4 1025.8 1026.0 0.2
28/02:30am 2.9 -0.3 2.8 99 0.0 NNW 9 9 5 5 1025.8 1026.0 0.2
28/02:00am 2.7 -0.2 2.6 99 0.0 N 7 9 4 5 1025.9 1026.1 0.2
28/01:30am 3.8 2.4 3.7 99 0.0 CALM 0 0 0 0 1025.8 1026.0 0.2
28/01:00am 5.2 3.7 5.1 99 0.0 WSW 2 6 1 3 1025.8 1026.0 0.2
28/12:30am 5.7 2.9 5.3 97 0.2 WSW 9 9 5 5 1025.8 1026.0 0.2
28/12:00am 6.7 3.8 6.4 98 0.1 WSW 11 15 6 8 1025.8 1026.0 0.2
 
Date/Time
EST
Temp
°C
App
Temp
°C
Dew
Point
°C
Rel
Hum
%
Delta-T
°C
Wind Press
QNH
hPa
Press
MSL
hPa
Rain since
9am
mm
Dir  Spd
km/h
Gust
km/h
Spd
kts
Gust
kts
27/11:30pm 6.7 3.8 6.6 99 0.0 WSW 11 19 6 10 1025.7 1025.9 0.2
27/11:00pm 6.7 3.8 6.6 99 0.0 W 11 13 6 7 1025.5 1025.7 0.2
27/10:30pm 7.0 4.6 6.9 99 0.0 W 9 13 5 7 1025.4 1025.6 0.2
27/10:00pm 6.9 4.1 6.8 99 0.0 W 11 13 6 7 1025.0 1025.2 0.2
27/09:30pm 6.5 4.0 6.4 99 0.0 W 9 11 5 6 1024.6 1024.8 0.2
27/09:00pm 7.7 5.0 7.3 97 0.2 W 11 15 6 8 1024.4 1024.6 0.2
27/08:30pm 8.9 5.4 8.6 98 0.1 WSW 17 20 9 11 1024.5 1024.7 0.2
27/08:00pm 9.1 5.7 9.0 99 0.0 WSW 17 22 9 12 1024.1 1024.3 0.2
27/07:30pm 9.2 6.2 9.1 99 0.0 WSW 15 19 8 10 1023.7 1023.9 0.2
27/07:00pm 9.4 5.7 9.3 99 0.0 WSW 19 28 10 15 1023.2 1023.5 0.2
27/06:30pm 10.0 6.8 9.9 99 0.1 W 17 22 9 12 1022.5 1022.8 0.2
27/06:00pm 10.0 7.0 9.4 96 0.3 W 15 20 8 11 1022.1 1022.4 0.2
27/05:30pm 10.3 6.6 9.4 94 0.5 W 19 24 10 13 1021.7 1022.0 0.2
27/05:00pm 10.9 7.6 9.5 91 0.7 W 17 24 9 13 1021.3 1021.6 0.2
27/04:30pm 10.3 7.1 10.0 98 0.2 W 17 24 9 13 1020.9 1021.2 0.2
27/04:00pm 10.4 6.6 9.2 92 0.6 W 19 22 10 12 1020.3 1020.5 0.2
27/03:30pm 11.6 7.5 8.8 83 1.4 W 20 30 11 16 1019.5 1019.7 0.2
27/03:00pm 11.2 5.9 8.4 83 1.4 W 26 35 14 19 1019.1 1019.3 0.2
27/02:34pm 10.6 5.9 9.4 92 0.6 WSW 24 30 13 16 1018.7 1018.9 0.0
27/02:30pm 11.0 6.4 9.8 92 0.6 WSW 24 30 13 16 1018.6 1018.8 0.0
27/02:00pm 10.9 6.1 8.7 86 1.1 W 24 32 13 17 1018.6 1018.8 0.0
27/01:30pm 10.3 5.6 9.2 93 0.5 W 24 32 13 17 1018.5 1018.7 0.0
27/01:10pm 10.6 6.3 9.5 93 0.6 W 22 30 12 16 1018.4 1018.6 0.0
27/01:00pm 10.1 5.6 10.0 99 0.1 WSW 24 35 13 19 1018.6 1018.8 0.0
27/12:54pm 9.7 4.6 9.1 96 0.3 WSW 26 35 14 19 1018.7 1018.9 0.0
27/12:30pm 10.8 5.8 7.9 82 1.4 W 24 33 13 18 1018.7 1018.9 0.0
27/12:00pm 10.7 5.3 8.1 84 1.3 WSW 26 35 14 19 1018.6 1018.8 0.0
27/11:47am 10.5 5.1 8.1 85 1.2 WSW 26 35 14 19 1018.5 1018.7 0.0
27/11:30am 10.0 4.6 8.1 88 0.9 W 26 35 14 19 1018.5 1018.7 0.0
27/11:15am 10.0 5.2 8.9 93 0.5 W 24 30 13 16 1018.4 1018.6 0.0
27/11:07am 10.3 5.4 8.6 89 0.8 WSW 24 33 13 18 1018.3 1018.5 0.0
27/11:00am 9.9 4.9 8.0 88 0.9 WSW 24 35 13 19 1018.2 1018.4 0.0
27/10:30am 9.5 4.1 7.9 90 0.8 WSW 26 35 14 19 1018.0 1018.2 0.0
27/10:00am 9.3 3.2 8.1 92 0.6 W 30 37 16 20 1017.4 1017.6 0.0
27/09:30am 9.2 3.4 7.8 91 0.7 W 28 39 15 21 1016.8 1017.0 0.0
27/09:00am 8.9 3.8 7.8 93 0.5 W 24 33 13 18 1016.4 1016.6 1.2
27/08:53am 8.8 3.8 7.9 94 0.4 W 24 33 13 18 1016.4 1016.6 1.2
27/08:30am 8.7 3.3 7.8 94 0.4 W 26 39 14 21 1016.0 1016.2 1.2
27/08:00am 8.7 3.3 7.8 94 0.4 W 26 35 14 19 1015.4 1015.7 1.2
27/07:30am 8.6 3.1 7.7 94 0.4 W 26 33 14 18 1014.9 1015.2 1.2
27/07:00am 8.3 3.2 7.5 95 0.4 WNW 24 30 13 16 1014.3 1014.6 1.2
27/06:30am 8.1 3.3 7.3 95 0.4 WNW 22 32 12 17 1013.6 1013.8 1.2
27/06:00am 8.2 3.0 7.3 94 0.4 WNW 24 32 13 17 1013.1 1013.3 1.2
27/05:30am 8.4 3.2 7.2 92 0.6 WNW 24 35 13 19 1012.6 1012.8 1.0
27/05:00am 8.5 3.3 7.1 91 0.7 WNW 24 32 13 17 1012.1 1012.3 1.0
27/04:30am 8.9 3.3 7.2 89 0.8 WNW 26 35 14 19 1011.8 1012.0 1.0
27/04:00am 9.2 3.7 7.5 89 0.8 WNW 26 41 14 22 1011.5 1011.7 1.0
27/03:30am 9.5 3.8 8.3 92 0.6 NW 28 37 15 20 1011.3 1011.5 1.0
27/03:10am 9.3 4.0 8.5 95 0.4 NW 26 33 14 18 1011.2 1011.4 1.0
27/03:00am 9.3 3.6 8.5 95 0.4 NW 28 37 15 20 1011.3 1011.5 1.0
27/02:51am 9.3 3.6 8.5 95 0.4 NW 28 37 15 20 1011.4 1011.6 1.0
27/02:30am 9.6 3.7 7.7 88 0.9 NW 28 39 15 21 1011.5 1011.7 0.8
27/02:00am 10.6 3.8 6.7 77 1.9 NW 32 43 17 23 1011.3 1011.5 0.4
27/01:41am 11.3 3.8 6.2 71 2.4 NW 35 54 19 29 1010.9 1011.1 0.4
27/01:30am 11.2 4.1 6.3 72 2.3 NNW 33 44 18 24 1010.9 1011.1 0.4
27/01:00am 10.6 3.8 7.1 79 1.7 NNW 32 44 17 24 1011.4 1011.6 0.4
27/12:53am 10.3 4.3 7.2 81 1.5 NNW 28 44 15 24 1011.5 1011.7 0.4
27/12:30am 9.7 5.3 7.3 85 1.1 NNW 20 26 11 14 1011.9 1012.1 0.4
27/12:00am 9.3 5.0 7.1 86 1.0 NNW 19 26 10 14 1012.2 1012.4 0.4
 
Date/Time
EST
Temp
°C
App
Temp
°C
Dew
Point
°C
Rel
Hum
%
Delta-T
°C
Wind Press
QNH
hPa
Press
MSL
hPa
Rain since
9am
mm
Dir  Spd
km/h
Gust
km/h
Spd
kts
Gust
kts
26/11:30pm 9.3 4.8 7.1 86 1.0 NNW 20 26 11 14 1012.4 1012.6 0.4
26/11:00pm 9.3 5.9 7.6 89 0.8 N 15 20 8 11 1012.9 1013.1 0.2
26/10:30pm 9.0 5.5 7.1 88 0.9 N 15 20 8 11 1013.2 1013.4 0.2
26/10:00pm 8.8 5.5 6.6 86 1.0 N 13 19 7 10 1013.4 1013.6 0.0
26/09:30pm 9.1 5.8 6.2 82 1.3 N 13 19 7 10 1013.5 1013.7 0.0
26/09:00pm 9.5 6.3 6.8 83 1.3 NNW 13 15 7 8 1014.0 1014.2 0.0
26/08:30pm 9.6 6.0 6.7 82 1.4 NNW 15 17 8 9 1014.1 1014.3 0.0
26/08:00pm 9.7 6.6 7.1 84 1.2 NNW 13 19 7 10 1014.4 1014.7 0.0
26/07:30pm 10.0 6.2 7.6 85 1.2 NNW 17 20 9 11 1014.7 1015.0 0.0
26/07:00pm 9.9 6.9 7.7 86 1.1 NNW 13 17 7 9 1014.7 1015.0 0.0
26/06:30pm 9.9 6.0 7.2 83 1.3 NNW 17 20 9 11 1014.9 1015.2 0.0
26/06:00pm 9.8 7.0 6.9 82 1.4 NNW 11 15 6 8 1014.5 1014.8 0.0
26/05:30pm 10.0 6.7 6.3 78 1.7 NW 13 19 7 10 1014.5 1014.8 0.0
26/05:00pm 10.5 5.8 5.9 73 2.1 NNW 20 32 11 17 1014.4 1014.7 0.0
26/04:30pm 11.2 7.0 5.5 68 2.6 NW 17 24 9 13 1014.7 1015.0 0.0
26/04:00pm 11.5 6.5 4.7 63 3.1 NW 20 28 11 15 1014.8 1015.1 0.0
26/03:30pm 11.6 6.1 3.9 59 3.5 NW 22 28 12 15 1015.0 1015.3 0.0
26/03:00pm 12.5 6.2 3.7 55 4.0 NW 26 37 14 20 1015.3 1015.6 0.0
26/02:30pm 12.4 5.6 3.1 53 4.1 NW 28 33 15 18 1015.4 1015.7 0.0
26/02:00pm 12.6 6.4 4.3 57 3.8 NW 26 33 14 18 1015.9 1016.1 0.0
26/01:30pm 12.5 7.2 5.0 60 3.5 NW 22 30 12 16 1016.2 1016.4 0.0
26/01:00pm 11.6 6.2 4.6 62 3.2 NW 22 32 12 17 1016.5 1016.7 0.0
26/12:30pm 12.3 8.1 5.5 63 3.2 WNW 17 28 9 15 1017.1 1017.3 0.0
26/12:00pm 12.0 7.8 5.6 65 3.0 NW 17 24 9 13 1017.6 1017.8 0.0
26/11:30am 11.6 7.4 5.5 66 2.8 NW 17 28 9 15 1018.2 1018.4 0.0
26/11:00am 11.1 6.8 5.4 68 2.6 WNW 17 24 9 13 1018.6 1018.8 0.0
26/10:30am 10.7 7.1 6.6 76 1.9 NW 15 19 8 10 1019.0 1019.2 0.0

Other Formats:

Comma delimited format used in spreadsheet applications
http://www.bom.gov.au/fwo/IDN60801/IDN60801.95704.axf

JavaScript Object Notation format (JSON) in row-major order
http://www.bom.gov.au/fwo/IDN60801/IDN60801.95704.json